Time;durP1;ratioP1;P1;durP2;ratioP2;P2;SDS_P1;SDS_P2;PMS_P1;PMS_P2;Temp;Humidity;BMP_temperature;BMP_pressure;BME280_temperature;BME280_humidity;BME280_pressure;Samples;Min_cycle;Max_cycle;Signal;HPM_P1;HPM_P2
2022/02/13 00:01:54;;;;;;;;;;;;;;;3.97;53.26;100729.16;5022900;28;19929;-81
2022/02/13 00:04:22;;;;;;;;;;;;;;;3.87;53.27;100712.56;5021582;28;19926;-81
2022/02/13 00:06:49;;;;;;;;;;;;;;;3.84;53.50;100707.56;5021593;28;19932;-81
2022/02/13 00:09:16;;;;;;;;;;;;;;;3.85;53.74;100704.53;5014836;28;19945;-82
2022/02/13 00:11:46;;;;;;;;;;;;;;;3.82;53.54;100696.81;5011280;28;19930;-82
2022/02/13 00:14:14;;;;;;;;;;;;;;;3.79;53.36;100696.50;5017719;28;19933;-83
2022/02/13 00:16:41;;;;;;;;;;;;;;;3.84;53.50;100691.03;5009729;28;19932;-82
2022/02/13 00:19:08;;;;;;;;;;;;;;;3.78;53.32;100690.19;5024714;28;19931;-83
2022/02/13 00:21:35;;;;;;;;;;;;;;;3.71;53.46;100685.97;5011901;28;19930;-82
2022/02/13 00:24:02;;;;;;;;;;;;;;;3.64;53.92;100681.50;5007728;28;19925;-82
2022/02/13 00:26:29;;;;;;;;;;;;;;;3.53;54.24;100685.28;5011767;28;19926;-81
2022/02/13 00:28:56;;;;;;;;;;;;;;;3.57;54.26;100669.91;5020388;28;19926;-82
2022/02/13 00:31:24;;;;;;;;;;;;;;;3.60;53.98;100666.59;5022366;28;19932;-83
2022/02/13 00:33:52;;;;;;;;;;;;;;;3.56;54.12;100661.91;5018525;28;20294;-82
2022/02/13 00:36:19;;;;;;;;;;;;;;;3.48;54.72;100654.94;5024224;28;19925;-82
2022/02/13 00:38:47;;;;;;;;;;;;;;;3.45;54.51;100649.97;5022034;28;19926;-81
2022/02/13 00:41:15;;;;;;;;;;;;;;;3.55;54.03;100647.31;5023548;28;20254;-81
2022/02/13 00:43:42;;;;;;;;;;;;;;;3.64;54.09;100651.22;5023750;28;19926;-81
2022/02/13 00:46:09;;;;;;;;;;;;;;;3.57;54.39;100647.00;5021047;28;20032;-82
2022/02/13 00:48:38;;;;;;;;;;;;;;;3.64;54.09;100634.69;5022143;28;19949;-82
2022/02/13 00:51:05;;;;;;;;;;;;;;;3.60;53.54;100633.56;5010667;28;19930;-82
2022/02/13 00:53:32;;;;;;;;;;;;;;;3.65;53.80;100639.13;5010912;28;19926;-82
2022/02/13 00:55:58;;;;;;;;;;;;;;;3.63;54.11;100634.94;5013246;28;19925;-81
2022/02/13 00:58:28;;;;;;;;;;;;;;;3.59;54.29;100640.16;5021010;28;19926;-82
2022/02/13 01:00:55;;;;;;;;;;;;;;;3.68;53.93;100640.50;5013446;28;19929;-81
2022/02/13 01:03:23;;;;;;;;;;;;;;;3.63;54.00;100645.97;5024515;28;19925;-82
2022/02/13 01:05:52;;;;;;;;;;;;;;;3.71;53.54;100650.16;5023803;28;19925;-81
2022/02/13 01:08:19;;;;;;;;;;;;;;;3.59;53.92;100640.16;5015328;28;19926;-82
2022/02/13 01:10:46;;;;;;;;;;;;;;;3.67;53.79;100647.09;5011937;28;19933;-81
2022/02/13 01:13:13;;;;;;;;;;;;;;;3.50;54.09;100646.41;5021743;28;19925;-81
2022/02/13 01:15:40;;;;;;;;;;;;;;;3.53;54.06;100649.50;5012340;28;19926;-82
2022/02/13 01:18:08;;;;;;;;;;;;;;;3.62;54.00;100645.13;5020334;28;19926;-81
2022/02/13 01:20:35;;;;;;;;;;;;;;;3.59;53.82;100634.66;5020699;28;19926;-82
2022/02/13 01:23:03;;;;;;;;;;;;;;;3.59;53.68;100640.16;5014185;28;19932;-81
2022/02/13 01:25:30;;;;;;;;;;;;;;;3.64;53.81;100648.47;5004955;28;19933;-81
2022/02/13 01:27:57;;;;;;;;;;;;;;;3.50;54.05;100635.41;5015756;28;19940;-81
2022/02/13 01:30:24;;;;;;;;;;;;;;;3.53;53.81;100623.84;5017758;28;19934;-80
2022/02/13 01:32:51;;;;;;;;;;;;;;;3.41;54.14;100632.31;5011610;28;19926;-82
2022/02/13 01:35:18;;;;;;;;;;;;;;;3.47;54.15;100620.25;5010395;28;19933;-82
2022/02/13 01:37:45;;;;;;;;;;;;;;;3.64;53.90;100633.88;5011983;28;19930;-81
2022/02/13 01:40:14;;;;;;;;;;;;;;;3.62;53.92;100636.88;5016068;28;19926;-82
2022/02/13 01:42:41;;;;;;;;;;;;;;;3.70;53.67;100635.56;5019286;28;19925;-81
2022/02/13 01:45:08;;;;;;;;;;;;;;;3.61;53.57;100638.00;5020213;28;20297;-81
2022/02/13 01:47:35;;;;;;;;;;;;;;;3.68;53.43;100632.25;5018063;28;20283;-82
2022/02/13 01:50:03;;;;;;;;;;;;;;;3.60;53.73;100625.28;5011719;28;20293;-82
2022/02/13 01:52:30;;;;;;;;;;;;;;;3.64;53.44;100617.34;5006371;28;19926;-82
2022/02/13 01:54:58;;;;;;;;;;;;;;;3.62;53.66;100611.25;5007829;28;19951;-82
2022/02/13 01:57:27;;;;;;;;;;;;;;;3.62;53.82;100600.25;5004371;28;19937;-81
2022/02/13 01:59:54;;;;;;;;;;;;;;;3.65;53.85;100600.56;5020065;28;19927;-81
2022/02/13 02:02:22;;;;;;;;;;;;;;;3.60;53.32;100600.50;5020290;28;19926;-82
2022/02/13 02:04:50;;;;;;;;;;;;;;;3.55;53.59;100597.72;5020935;28;19925;-81
2022/02/13 02:07:17;;;;;;;;;;;;;;;3.58;53.31;100588.09;5015276;28;20301;-82
2022/02/13 02:09:45;;;;;;;;;;;;;;;3.54;53.40;100573.19;5021548;28;19925;-82
2022/02/13 02:12:12;;;;;;;;;;;;;;;3.51;53.36;100585.59;5019280;28;19926;-81
2022/02/13 02:14:41;;;;;;;;;;;;;;;3.38;53.98;100577.75;5011067;28;19925;-80
2022/02/13 02:17:07;;;;;;;;;;;;;;;3.41;53.77;100580.00;5020429;28;19926;-82
2022/02/13 02:19:36;;;;;;;;;;;;;;;3.41;53.86;100582.75;5019991;28;19936;-81
2022/02/13 02:22:05;;;;;;;;;;;;;;;3.32;53.85;100581.56;5019463;28;19926;-81
2022/02/13 02:24:33;;;;;;;;;;;;;;;3.29;54.30;100571.09;5019124;28;20362;-82
2022/02/13 02:27:01;;;;;;;;;;;;;;;3.39;53.95;100573.91;5020107;28;19932;-82
2022/02/13 02:29:28;;;;;;;;;;;;;;;3.42;54.05;100568.72;5019776;28;19926;-82
2022/02/13 02:31:55;;;;;;;;;;;;;;;3.39;54.30;100569.25;5019434;28;19925;-81
2022/02/13 02:34:22;;;;;;;;;;;;;;;3.37;54.05;100557.66;5020749;28;19932;-82
2022/02/13 02:36:49;;;;;;;;;;;;;;;3.22;54.32;100560.31;5021746;28;19933;-82
2022/02/13 02:39:16;;;;;;;;;;;;;;;3.34;53.97;100557.34;5021464;28;19925;-82
2022/02/13 02:41:45;;;;;;;;;;;;;;;3.39;54.25;100554.66;5020534;28;19932;-82
2022/02/13 02:44:12;;;;;;;;;;;;;;;3.34;54.14;100555.44;5020385;28;19936;-82
2022/02/13 02:46:39;;;;;;;;;;;;;;;3.18;54.76;100567.44;5020735;28;19925;-82
2022/02/13 02:49:06;;;;;;;;;;;;;;;3.17;54.86;100558.34;5020058;28;19965;-81
2022/02/13 02:51:32;;;;;;;;;;;;;;;3.17;54.81;100561.09;5023300;28;19932;-82
2022/02/13 02:54:00;;;;;;;;;;;;;;;3.11;54.96;100548.38;5024009;28;20287;-82
2022/02/13 02:56:27;;;;;;;;;;;;;;;3.07;55.29;100544.50;5024319;28;19926;-82
2022/02/13 02:58:55;;;;;;;;;;;;;;;3.05;55.10;100541.19;5024031;28;19933;-82
2022/02/13 03:01:23;;;;;;;;;;;;;;;3.02;55.11;100537.03;5024782;28;19932;-81
2022/02/13 03:03:50;;;;;;;;;;;;;;;2.96;55.29;100527.09;5024799;28;20389;-82
2022/02/13 03:06:17;;;;;;;;;;;;;;;2.92;56.09;100530.59;5026015;28;19932;-82
2022/02/13 03:08:44;;;;;;;;;;;;;;;2.82;55.99;100517.59;5009997;28;19932;-82
2022/02/13 03:11:11;;;;;;;;;;;;;;;2.76;56.21;100513.97;5006236;28;19925;-82
2022/02/13 03:13:38;;;;;;;;;;;;;;;2.71;55.86;100502.94;5013656;28;19925;-82
2022/02/13 03:16:06;;;;;;;;;;;;;;;2.66;55.71;100502.06;5025680;28;19940;-82
2022/02/13 03:18:36;;;;;;;;;;;;;;;2.60;55.88;100492.91;5025566;28;20369;-81
2022/02/13 03:21:03;;;;;;;;;;;;;;;2.53;55.90;100495.06;5024731;28;19926;-82
2022/02/13 03:23:30;;;;;;;;;;;;;;;2.50;55.46;100479.06;5024726;28;19936;-81
2022/02/13 03:26:00;;;;;;;;;;;;;;;2.52;55.69;100476.88;5025917;28;19926;-82
2022/02/13 03:28:27;;;;;;;;;;;;;;;2.43;56.01;100473.78;5025887;28;19930;-82
2022/02/13 03:30:54;;;;;;;;;;;;;;;2.42;55.61;100470.22;5021639;28;19926;-81
2022/02/13 03:33:22;;;;;;;;;;;;;;;2.36;55.89;100463.00;5018901;28;19926;-81
2022/02/13 03:35:51;;;;;;;;;;;;;;;2.29;55.75;100461.56;5017797;28;19926;-81
2022/02/13 03:38:18;;;;;;;;;;;;;;;2.30;56.49;100458.56;5017298;28;19925;-81
2022/02/13 03:40:46;;;;;;;;;;;;;;;2.11;56.83;100460.81;5021025;28;20290;-82
2022/02/13 03:43:13;;;;;;;;;;;;;;;2.20;56.87;100456.53;5026343;28;19929;-81
2022/02/13 03:45:40;;;;;;;;;;;;;;;2.24;56.39;100452.16;5026283;28;19926;-82
2022/02/13 03:48:07;;;;;;;;;;;;;;;2.22;56.24;100450.78;5019143;28;19936;-82
2022/02/13 03:50:39;;;;;;;;;;;;;;;2.20;56.07;100441.97;5006426;28;19932;-81
2022/02/13 03:53:05;;;;;;;;;;;;;;;1.99;57.82;100446.41;5008692;28;19929;-82
2022/02/13 03:55:32;;;;;;;;;;;;;;;2.07;56.85;100447.88;5025939;28;19926;-81
2022/02/13 03:58:00;;;;;;;;;;;;;;;1.94;57.44;100449.94;5027006;28;19932;-82
2022/02/13 04:00:27;;;;;;;;;;;;;;;1.99;57.59;100449.97;5026099;28;19929;-81
2022/02/13 04:02:55;;;;;;;;;;;;;;;1.96;57.16;100436.78;5026232;28;19926;-82
2022/02/13 04:05:23;;;;;;;;;;;;;;;1.87;57.53;100443.81;5025931;28;19948;-81
2022/02/13 04:07:51;;;;;;;;;;;;;;;1.92;57.08;100443.03;5026391;28;19933;-81
2022/02/13 04:10:18;;;;;;;;;;;;;;;1.89;57.80;100441.66;5025754;28;19926;-82
2022/02/13 04:12:45;;;;;;;;;;;;;;;1.90;57.26;100434.22;5026159;28;19925;-82
2022/02/13 04:15:12;;;;;;;;;;;;;;;1.91;55.73;100427.63;5024724;28;19926;-82
2022/02/13 04:17:39;;;;;;;;;;;;;;;1.91;55.29;100423.00;5025779;28;19933;-81
2022/02/13 04:20:07;;;;;;;;;;;;;;;1.95;55.01;100434.28;5025344;28;19932;-82
2022/02/13 04:22:34;;;;;;;;;;;;;;;2.05;54.55;100426.16;5024488;28;19925;-82
2022/02/13 04:25:03;;;;;;;;;;;;;;;2.05;54.92;100430.81;5023736;28;19933;-82
2022/02/13 04:27:30;;;;;;;;;;;;;;;2.02;54.55;100418.44;5024179;28;19933;-82
2022/02/13 04:29:57;;;;;;;;;;;;;;;2.10;54.66;100422.63;5024459;28;19933;-82
2022/02/13 04:32:24;;;;;;;;;;;;;;;2.07;53.20;100423.16;5024328;28;19932;-82
2022/02/13 04:34:51;;;;;;;;;;;;;;;2.16;53.64;100419.69;5023875;28;19925;-82
2022/02/13 04:37:18;;;;;;;;;;;;;;;2.24;52.91;100427.44;5024188;28;19936;-82
2022/02/13 04:39:45;;;;;;;;;;;;;;;2.33;53.05;100429.72;5023085;28;19926;-82
2022/02/13 04:42:13;;;;;;;;;;;;;;;2.35;53.34;100433.88;5024464;28;19926;-81
2022/02/13 04:44:40;;;;;;;;;;;;;;;2.34;53.26;100432.22;5024040;28;19936;-81
2022/02/13 04:47:07;;;;;;;;;;;;;;;2.46;52.94;100431.19;5022054;28;19934;-81
2022/02/13 04:49:37;;;;;;;;;;;;;;;2.48;52.21;100420.78;5003572;28;19926;-81
2022/02/13 04:52:05;;;;;;;;;;;;;;;2.36;52.64;100415.47;5002680;28;19933;-81
2022/02/13 04:54:32;;;;;;;;;;;;;;;2.29;52.82;100407.44;5003860;28;19933;-80
2022/02/13 04:57:01;;;;;;;;;;;;;;;2.36;53.01;100397.03;5019165;28;19925;-82
2022/02/13 04:59:33;;;;;;;;;;;;;;;2.46;52.94;100396.31;5022316;28;19929;-82
2022/02/13 05:02:00;;;;;;;;;;;;;;;2.52;52.67;100389.75;5022602;28;19947;-81
2022/02/13 05:04:30;;;;;;;;;;;;;;;2.42;52.00;100384.19;5022833;28;19933;-80
2022/02/13 05:06:57;;;;;;;;;;;;;;;2.33;52.95;100364.59;5022330;28;20323;-80
2022/02/13 05:09:24;;;;;;;;;;;;;;;2.35;51.99;100351.44;5023160;28;19925;-80
2022/02/13 05:11:51;;;;;;;;;;;;;;;2.43;52.48;100356.41;5022270;28;19926;-80
2022/02/13 05:14:18;;;;;;;;;;;;;;;2.43;51.92;100350.91;5020190;28;20284;-80
2022/02/13 05:16:46;;;;;;;;;;;;;;;2.48;51.39;100350.16;5021490;28;19925;-81
2022/02/13 05:19:13;;;;;;;;;;;;;;;2.54;50.71;100349.09;5021547;28;20362;-81
2022/02/13 05:21:41;;;;;;;;;;;;;;;2.52;50.39;100334.78;5021405;28;19925;-81
2022/02/13 05:24:08;;;;;;;;;;;;;;;2.53;50.85;100330.91;5021140;28;19926;-80
2022/02/13 05:26:35;;;;;;;;;;;;;;;2.60;50.08;100334.28;5021358;28;19941;-80
2022/02/13 05:29:03;;;;;;;;;;;;;;;2.74;50.11;100331.88;5021372;28;19933;-80
2022/02/13 05:31:30;;;;;;;;;;;;;;;2.78;49.97;100332.19;5021126;28;19926;-81
2022/02/13 05:33:59;;;;;;;;;;;;;;;2.77;49.64;100336.88;5020612;28;19925;-81
2022/02/13 05:36:26;;;;;;;;;;;;;;;2.77;49.54;100342.38;5021323;28;20283;-81
2022/02/13 05:38:54;;;;;;;;;;;;;;;2.84;49.83;100329.19;5021293;28;19937;-81
2022/02/13 05:41:21;;;;;;;;;;;;;;;2.84;49.35;100323.69;5022994;28;20394;-82
2022/02/13 05:43:47;;;;;;;;;;;;;;;2.85;49.77;100333.59;5020511;28;20337;-80
2022/02/13 05:46:14;;;;;;;;;;;;;;;2.87;49.46;100333.31;5021072;28;19926;-82
2022/02/13 05:48:45;;;;;;;;;;;;;;;2.79;49.73;100334.69;5010153;28;19933;-81
2022/02/13 05:51:14;;;;;;;;;;;;;;;2.78;50.09;100327.50;5007843;28;19933;-80
2022/02/13 05:53:41;;;;;;;;;;;;;;;2.87;49.86;100336.06;5022271;28;19925;-81
2022/02/13 05:56:08;;;;;;;;;;;;;;;2.89;50.13;100330.31;5021439;28;19935;-82
2022/02/13 05:58:39;;;;;;;;;;;;;;;2.79;50.24;100340.19;5020171;28;20390;-81
2022/02/13 06:01:07;;;;;;;;;;;;;;;2.82;50.83;100331.38;5019662;28;19925;-81
2022/02/13 06:03:33;;;;;;;;;;;;;;;2.82;50.82;100327.81;5021396;28;19933;-80
2022/02/13 06:06:01;;;;;;;;;;;;;;;2.74;50.83;100334.63;5020918;28;19926;-81
2022/02/13 06:08:29;;;;;;;;;;;;;;;2.73;51.08;100343.13;5020821;28;19930;-80
2022/02/13 06:10:56;;;;;;;;;;;;;;;2.82;50.62;100330.56;5021102;28;19925;-80
2022/02/13 06:13:23;;;;;;;;;;;;;;;2.87;50.73;100335.25;5021250;28;19925;-80
2022/02/13 06:15:50;;;;;;;;;;;;;;;2.74;51.60;100344.81;5020758;28;19926;-81
2022/02/13 06:18:17;;;;;;;;;;;;;;;2.66;51.57;100335.13;5020394;28;19933;-81
2022/02/13 06:20:44;;;;;;;;;;;;;;;2.67;52.17;100335.94;5020485;28;19925;-81
2022/02/13 06:23:11;;;;;;;;;;;;;;;2.73;52.33;100333.00;5021078;28;19937;-80
2022/02/13 06:25:40;;;;;;;;;;;;;;;2.64;52.39;100332.63;5022686;28;19941;-81
2022/02/13 06:28:07;;;;;;;;;;;;;;;2.67;51.74;100325.81;5023884;28;19926;-81
2022/02/13 06:30:34;;;;;;;;;;;;;;;2.49;52.71;100315.22;5023878;28;19932;-81
2022/02/13 06:33:03;;;;;;;;;;;;;;;2.43;53.35;100312.44;5023900;28;19925;-81
2022/02/13 06:35:30;;;;;;;;;;;;;;;2.53;53.03;100305.34;5025961;28;19925;-81
2022/02/13 06:37:57;;;;;;;;;;;;;;;2.70;52.38;100302.44;5025224;28;20302;-82
2022/02/13 06:40:24;;;;;;;;;;;;;;;2.53;52.30;100308.09;5026119;28;19926;-81
2022/02/13 06:42:52;;;;;;;;;;;;;;;2.61;53.01;100308.44;5025588;28;20306;-81
2022/02/13 06:45:19;;;;;;;;;;;;;;;2.53;52.65;100313.59;5025586;28;19929;-81
2022/02/13 06:47:46;;;;;;;;;;;;;;;2.56;52.98;100324.06;5020394;28;19926;-80
2022/02/13 06:50:13;;;;;;;;;;;;;;;2.51;53.22;100318.53;5037631;28;20300;-82
2022/02/13 06:52:40;;;;;;;;;;;;;;;2.57;53.34;100317.47;5022841;28;19930;-81
2022/02/13 06:55:08;;;;;;;;;;;;;;;2.70;53.12;100325.25;5026174;28;19926;-82
2022/02/13 06:57:35;;;;;;;;;;;;;;;2.88;52.79;100318.50;5024942;28;19925;-82
2022/02/13 07:00:03;;;;;;;;;;;;;;;2.84;52.53;100323.69;5025145;28;20286;-81
2022/02/13 07:02:30;;;;;;;;;;;;;;;2.80;52.56;100317.06;5023668;28;19926;-81
2022/02/13 07:04:57;;;;;;;;;;;;;;;2.78;52.28;100329.44;5081911;28;19931;-81
2022/02/13 07:07:24;;;;;;;;;;;;;;;2.89;51.91;100333.06;5025361;28;19926;-81
2022/02/13 07:09:51;;;;;;;;;;;;;;;2.91;52.08;100336.38;5004799;28;19936;-81
2022/02/13 07:12:18;;;;;;;;;;;;;;;3.20;52.18;100332.13;5019217;28;19926;-82
2022/02/13 07:14:46;;;;;;;;;;;;;;;3.55;50.74;100336.09;5023683;28;19926;-82
2022/02/13 07:17:17;;;;;;;;;;;;;;;3.89;49.89;100340.31;5024751;28;19933;-82
2022/02/13 07:19:44;;;;;;;;;;;;;;;4.09;49.39;100334.81;5023987;28;19929;-82
2022/02/13 07:22:11;;;;;;;;;;;;;;;4.83;48.05;100338.91;5024752;28;19932;-82
2022/02/13 07:24:40;;;;;;;;;;;;;;;5.73;45.35;100339.06;5025240;28;19933;-82
2022/02/13 07:27:08;;;;;;;;;;;;;;;7.24;43.07;100328.06;5024607;28;19926;-82
2022/02/13 07:29:35;;;;;;;;;;;;;;;8.47;39.79;100316.03;5024578;28;19926;-82
2022/02/13 07:32:03;;;;;;;;;;;;;;;8.98;38.15;100314.25;5025458;28;19917;-81
2022/02/13 07:34:31;;;;;;;;;;;;;;;8.62;37.59;100305.78;5026394;28;19925;-82
2022/02/13 07:37:02;;;;;;;;;;;;;;;8.48;37.91;100309.38;5024997;28;19926;-82
2022/02/13 07:39:29;;;;;;;;;;;;;;;8.60;38.15;100305.25;5023840;28;20283;-82
2022/02/13 07:41:57;;;;;;;;;;;;;;;8.28;38.14;100295.81;5023105;28;20382;-83
2022/02/13 07:44:24;;;;;;;;;;;;;;;8.42;37.96;100298.63;5022994;28;19999;-81
2022/02/13 07:46:53;;;;;;;;;;;;;;;9.00;37.46;100294.50;5023668;28;19929;-81
2022/02/13 07:49:20;;;;;;;;;;;;;;;9.56;36.38;100279.44;5023335;28;19932;-81
2022/02/13 07:51:49;;;;;;;;;;;;;;;10.16;35.01;100278.28;5020825;28;19925;-82
2022/02/13 07:54:16;;;;;;;;;;;;;;;10.87;33.88;100272.00;5025184;28;19925;-82
2022/02/13 07:56:43;;;;;;;;;;;;;;;10.69;33.36;100277.50;5018493;28;19926;-83
2022/02/13 07:59:10;;;;;;;;;;;;;;;11.09;32.97;100274.72;5012282;28;19926;-81
2022/02/13 08:01:37;;;;;;;;;;;;;;;11.52;32.18;100278.75;5005213;28;19940;-81
2022/02/13 08:04:04;;;;;;;;;;;;;;;12.54;31.06;100269.88;5014544;28;19942;-81
2022/02/13 08:06:31;;;;;;;;;;;;;;;12.50;29.86;100276.47;5014401;28;19931;-81
2022/02/13 08:11:12;;;;;;;5.72;3.83;;;;;;;12.04;30.34;100261.28;5150389;27;20119;-61
2022/02/13 08:13:39;;;;;;;;;;;;;;;10.56;34.81;100258.91;5130160;27;20399;-59
2022/02/13 08:16:07;;;;;;;5.32;3.75;;;;;;;11.19;36.51;100256.88;5128123;27;19920;-59
2022/02/13 08:18:34;;;;;;;5.43;3.92;;;;;;;12.59;32.45;100247.34;5128063;27;20058;-58
2022/02/13 08:21:03;;;;;;;5.22;3.75;;;;;;;13.72;28.73;100254.34;5128428;27;20043;-59
2022/02/13 08:23:30;;;;;;;5.28;3.70;;;;;;;14.61;27.46;100242.81;5136186;27;20055;-61
2022/02/13 08:25:58;;;;;;;4.50;3.45;;;;;;;15.26;26.48;100238.53;5129968;28;20062;-61
2022/02/13 08:28:29;;;;;;;5.25;3.50;;;;;;;14.74;26.29;100235.25;5128845;28;20051;-61
2022/02/13 08:30:56;;;;;;;5.10;3.65;;;;;;;14.98;25.63;100242.84;5129716;28;20047;-60
2022/02/13 08:33:24;;;;;;;4.43;3.35;;;;;;;14.94;26.22;100239.09;5128227;28;20396;-61
2022/02/13 08:35:51;;;;;;;5.40;3.38;;;;;;;16.34;24.37;100245.38;5126993;28;20047;-59
2022/02/13 08:38:18;;;;;;;5.70;3.70;;;;;;;16.99;24.05;100225.44;5129130;28;20058;-59
2022/02/13 08:40:46;;;;;;;5.35;3.65;;;;;;;17.11;23.74;100211.22;5129580;28;20117;-59
2022/02/13 08:43:13;;;;;;;4.88;3.40;;;;;;;17.53;23.08;100216.22;5131378;27;20062;-58
2022/02/13 08:45:42;;;;;;;4.22;3.33;;;;;;;17.75;22.82;100209.06;5129216;28;20058;-60
2022/02/13 08:48:09;;;;;;;5.27;3.27;;;;;;;16.55;23.84;100208.59;5127600;28;20059;-60
2022/02/13 08:50:36;;;;;;;4.93;3.28;;;;;;;15.32;24.85;100204.25;5128527;28;20048;-60
2022/02/13 08:53:04;;;;;;;4.95;3.30;;;;;;;16.83;23.81;100200.09;5132381;27;20051;-59
2022/02/13 08:55:31;;;;;;;4.53;3.30;;;;;;;16.91;23.40;100212.38;5129408;27;20055;-60
2022/02/13 08:57:58;;;;;;;3.90;3.20;;;;;;;16.68;23.54;100212.16;5127993;27;20051;-60
2022/02/13 09:00:26;;;;;;;4.10;3.13;;;;;;;17.02;23.20;100208.63;5128155;27;20055;-59
2022/02/13 09:02:55;;;;;;;5.78;3.55;;;;;;;18.15;22.60;100204.28;5128209;27;20048;-60
2022/02/13 09:05:22;;;;;;;4.10;3.05;;;;;;;17.79;22.45;100207.16;5127854;27;20051;-60
2022/02/13 09:07:50;;;;;;;3.90;2.95;;;;;;;17.77;22.26;100197.44;5124618;27;20058;-61
2022/02/13 09:10:18;;;;;;;3.95;2.92;;;;;;;18.03;22.61;100193.97;5127298;27;20043;-60
2022/02/13 09:12:46;;;;;;;4.65;3.00;;;;;;;18.06;22.34;100181.97;5128362;27;20043;-61
2022/02/13 09:15:14;;;;;;;4.35;3.03;;;;;;;18.19;21.92;100185.44;5131333;27;20039;-61
2022/02/13 09:17:44;;;;;;;4.63;3.30;;;;;;;16.89;23.34;100180.97;5149120;27;20069;-60
2022/02/13 09:20:13;;;;;;;4.18;3.20;;;;;;;16.99;22.94;100183.22;5149346;27;20062;-60
2022/02/13 09:22:41;;;;;;;4.32;3.42;;;;;;;16.09;24.16;100189.31;5130378;27;20047;-60
2022/02/13 09:25:09;;;;;;;4.75;3.00;;;;;;;15.53;25.21;100186.44;5114884;27;20411;-60
2022/02/13 09:27:37;;;;;;;4.28;3.20;;;;;;;15.52;25.61;100171.59;5094788;28;20494;-60
2022/02/13 09:30:07;;;;;;;4.43;3.28;;;;;;;15.77;24.89;100183.59;5094485;28;20457;-60
2022/02/13 09:32:34;;;;;;;4.40;2.97;;;;;;;16.21;24.66;100179.97;5104764;27;20074;-60
2022/02/13 09:35:02;;;;;;;3.63;2.88;;;;;;;15.80;25.51;100176.44;5114210;28;20059;-60
2022/02/13 09:37:31;;;;;;;4.43;3.15;;;;;;;16.18;24.57;100181.50;5114220;28;20056;-60
2022/02/13 09:40:00;;;;;;;4.78;3.28;;;;;;;16.84;24.21;100174.44;5114487;28;20468;-60
2022/02/13 09:42:28;;;;;;;4.75;3.20;;;;;;;16.10;24.86;100176.88;5120665;27;20043;-60
2022/02/13 09:44:55;;;;;;;5.43;3.33;;;;;;;16.22;24.78;100170.38;5135032;27;20376;-59
2022/02/13 09:47:25;;;;;;;4.85;3.22;;;;;;;16.89;24.09;100159.25;5133575;27;20051;-60
2022/02/13 09:49:53;;;;;;;6.60;3.50;;;;;;;17.12;23.96;100155.78;5113975;28;20095;-59
2022/02/13 09:52:20;;;;;;;4.22;3.17;;;;;;;17.95;23.62;100153.53;5117943;27;20043;-60
2022/02/13 09:54:49;;;;;;;3.97;3.10;;;;;;;17.72;23.14;100155.47;5125381;27;20385;-60
2022/02/13 10:00:04;;;;;;;4.18;3.10;;;;;;;17.15;23.86;100146.59;5117352;28;20062;-60
2022/02/13 10:02:39;;;;;;;6.50;3.72;;;;;;;16.89;24.03;100150.00;5114301;28;20515;-61
2022/02/13 10:05:11;;;;;;;4.30;3.42;;;;;;;17.34;23.38;100149.44;5114105;28;20048;-61
2022/02/13 10:07:40;;;;;;;6.05;3.40;;;;;;;16.67;24.04;100140.19;5117349;27;20059;-61
2022/02/13 10:10:14;;;;;;;4.75;3.30;;;;;;;17.68;23.43;100130.06;5112844;28;20059;-61
2022/02/13 10:12:44;;;;;;;4.00;2.92;;;;;;;18.10;22.94;100123.66;5114699;27;20463;-61
2022/02/13 10:15:31;;;;;;;4.82;3.17;;;;;;;17.30;23.19;100122.38;5114104;28;20055;-61
2022/02/13 10:18:04;;;;;;;5.55;3.38;;;;;;;18.12;22.69;100129.75;5114000;28;20051;-60
2022/02/13 10:20:33;;;;;;;4.65;3.15;;;;;;;19.26;21.41;100127.97;5113935;27;20463;-61
2022/02/13 10:23:05;;;;;;;4.53;3.45;;;;;;;17.38;23.52;100130.63;5113739;27;20471;-61
2022/02/13 10:25:34;;;;;;;5.97;3.10;;;;;;;19.79;21.09;100101.63;5114250;28;20047;-61
2022/02/13 10:28:11;;;;;;;4.00;3.03;;;;;;;20.64;19.84;100100.88;5113919;27;20384;-61
2022/02/13 10:30:40;;;;;;;3.92;2.90;;;;;;;20.09;20.51;100095.06;5133647;27;20051;-61
2022/02/13 10:33:26;;;;;;;3.78;2.85;;;;;;;18.57;21.47;100085.78;5111870;27;20048;-61
2022/02/13 10:36:04;;;;;;;3.50;2.90;;;;;;;18.85;21.81;100096.72;5115567;27;20048;-62
2022/02/13 10:38:33;;;;;;;5.33;3.27;;;;;;;19.54;20.79;100094.84;5116777;27;20062;-61
2022/02/13 10:41:19;;;;;;;4.88;3.72;;;;;;;18.50;21.90;100105.44;5133927;27;20047;-61
2022/02/13 10:43:54;;;;;;;4.85;3.20;;;;;;;19.01;21.70;100068.34;5112830;28;20058;-60
2022/02/13 10:46:24;;;;;;;4.55;3.28;;;;;;;19.44;21.20;100090.69;5117728;27;20471;-60
2022/02/13 10:48:52;;;;;;;3.72;2.95;;;;;;;19.58;21.40;100073.09;5113468;27;20044;-60
2022/02/13 10:51:21;;;;;;;4.70;3.38;;;;;;;20.14;20.80;100076.94;5112987;28;20059;-60
2022/02/13 10:53:49;;;;;;;4.18;3.40;;;;;;;19.80;20.93;100086.31;5110368;28;20052;-61
2022/02/13 10:56:19;;;;;;;6.03;3.65;;;;;;;19.99;20.68;100079.66;5110846;28;20059;-60
2022/02/13 10:58:50;;;;;;;5.20;3.78;;;;;;;20.05;20.71;100086.59;5110975;27;20051;-61
2022/02/13 11:01:21;;;;;;;4.03;3.58;;;;;;;19.90;21.12;100070.66;5132055;27;20051;-61
2022/02/13 11:03:50;;;;;;;5.18;3.47;;;;;;;21.21;19.97;100071.31;5133021;27;20055;-61
2022/02/13 11:06:18;;;;;;;7.60;4.07;;;;;;;21.37;19.39;100091.59;5113228;27;20051;-61
2022/02/13 11:08:53;;;;;;;4.45;4.05;;;;;;;21.06;19.57;100070.41;5117512;27;20050;-61
2022/02/13 11:11:22;;;;;;;3.90;3.60;;;;;;;21.53;19.22;100050.81;5109526;27;20081;-61
2022/02/13 11:13:50;;;;;;;5.00;3.75;;;;;;;22.49;18.67;100047.34;5112038;27;20056;-61
2022/02/13 11:16:32;;;;;;;4.45;4.05;;;;;;;23.42;18.06;100034.97;5111414;27;20047;-61
2022/02/13 11:19:02;;;;;;;4.80;3.85;;;;;;;23.72;17.53;100034.38;5111722;28;20059;-61
2022/02/13 11:21:31;;;;;;;4.22;3.60;;;;;;;24.07;17.36;100029.72;5113413;27;20048;-61
2022/02/13 11:24:02;;;;;;;4.32;3.72;;;;;;;23.41;17.24;100025.59;5112156;28;20054;-61
2022/02/13 11:26:42;;;;;;;5.10;3.88;;;;;;;22.35;18.74;100030.31;5112557;28;20047;-61
2022/02/13 11:29:11;;;;;;;4.18;3.42;;;;;;;23.34;17.52;100027.69;5112738;28;20055;-61
2022/02/13 11:31:42;;;;;;;4.40;4.00;;;;;;;22.30;18.39;100006.00;5124457;27;20654;-61
2022/02/13 11:34:14;;;;;;;5.75;4.07;;;;;;;20.84;19.82;100027.81;5132872;27;20047;-61
2022/02/13 11:36:52;;;;;;;5.43;3.80;;;;;;;21.01;19.49;100011.31;5132846;27;20124;-61
2022/02/13 11:39:35;;;;;;;6.22;4.10;;;;;;;20.98;19.71;100007.28;5132916;27;20047;-61
2022/02/13 11:42:09;;;;;;;4.43;3.78;;;;;;;20.99;19.76;100014.53;5128042;27;20047;-61
2022/02/13 11:44:42;;;;;;;6.65;4.03;;;;;;;20.40;20.52;100017.38;5132492;27;20051;-61
2022/02/13 11:47:10;;;;;;;4.20;3.30;;;;;;;18.96;21.81;99998.13;5132185;27;20051;-61
2022/02/13 11:50:21;;;;;;;4.37;3.27;;;;;;;19.55;21.74;99997.59;5112174;28;20062;-61
2022/02/13 11:53:09;;;;;;;5.20;3.42;;;;;;;17.99;23.22;99998.63;5091431;28;20424;-61
2022/02/13 11:55:37;;;;;;;4.72;3.42;;;;;;;17.59;23.13;99995.06;5091392;28;20457;-61
2022/02/13 11:58:11;;;;;;;4.85;3.50;;;;;;;17.34;23.85;99980.53;5091708;28;20056;-60
2022/02/13 12:00:47;;;;;;;4.50;3.70;;;;;;;17.44;23.96;99994.00;5099210;28;20054;-60
2022/02/13 12:03:24;;;;;;;4.28;3.78;;;;;;;18.11;23.08;99975.88;5132283;27;20047;-60
2022/02/13 12:06:29;;;;;;;4.22;3.75;;;;;;;18.34;22.87;99970.22;5131814;27;20051;-61
2022/02/13 12:09:01;;;;;;;4.50;4.05;;;;;;;18.98;22.31;99972.31;5132218;27;20050;-61
2022/02/13 12:11:37;;;;;;;4.75;3.83;;;;;;;19.10;22.32;99971.25;5121936;27;20496;-61
2022/02/13 12:14:13;;;;;;;5.13;3.83;;;;;;;18.86;22.21;99962.91;5111861;28;20054;-61
2022/02/13 12:16:49;;;;;;;4.30;3.90;;;;;;;19.41;21.95;99968.00;5111822;28;20070;-61
2022/02/13 12:19:30;;;;;;;4.50;4.10;;;;;;;20.00;21.37;99951.22;5111500;28;20055;-61
2022/02/13 12:22:09;;;;;;;5.65;4.20;;;;;;;19.59;21.45;99944.75;5123709;28;20057;-61
2022/02/13 12:24:36;;;;;;;4.10;3.70;;;;;;;19.45;21.99;99949.06;5132109;27;20395;-61
2022/02/13 12:27:04;;;;;;;4.45;3.55;;;;;;;18.01;23.64;99926.59;5132265;27;20063;-62
2022/02/13 12:29:33;;;;;;;5.32;3.78;;;;;;;18.09;23.81;99923.91;5132057;27;20051;-61
2022/02/13 12:32:09;;;;;;;6.07;3.83;;;;;;;18.05;23.42;99930.28;5120557;27;20051;-61